Time;durP1;ratioP1;P1;durP2;ratioP2;P2;SDS_P1;SDS_P2;PMS_P1;PMS_P2;Temp;Humidity;BMP_temperature;BMP_pressure;BME280_temperature;BME280_humidity;BME280_pressure;Samples;Min_cycle;Max_cycle;Signal;HPM_P1;HPM_P2
2022/06/22 00:01:54;;;;;;;;;12.50;12.50;;;;;22.49;47.10;100653.25;5099864;27;45389;-73
2022/06/22 00:04:28;;;;;;;;;13.25;11.00;;;;;22.42;47.12;100654.78;5098860;27;46297;-73
2022/06/22 00:07:03;;;;;;;;;10.25;10.25;;;;;22.39;46.88;100645.00;5101202;27;46270;-73
2022/06/22 00:09:32;;;;;;;;;11.75;10.00;;;;;22.42;47.13;100648.44;5101075;27;45408;-73
2022/06/22 00:11:59;;;;;;;;;8.75;8.75;;;;;22.44;47.80;100652.78;5100664;27;45301;-73
2022/06/22 00:14:41;;;;;;;;;10.50;8.75;;;;;22.44;47.20;100638.31;5101309;27;45371;-73
2022/06/22 00:17:24;;;;;;;;;10.50;10.50;;;;;22.42;47.28;100641.16;5086545;27;45521;-73
2022/06/22 00:19:56;;;;;;;;;10.00;9.00;;;;;22.39;47.45;100630.53;5100765;27;45709;-73
2022/06/22 00:22:27;;;;;;;;;11.50;10.50;;;;;22.39;47.22;100634.13;5100221;27;45332;-73
2022/06/22 00:25:01;;;;;;;;;14.00;12.00;;;;;22.33;47.81;100615.59;5084679;27;45822;-73
2022/06/22 00:27:37;;;;;;;;;13.00;11.25;;;;;22.30;47.58;100617.72;5105057;27;47588;-73
2022/06/22 00:30:15;;;;;;;;;12.00;10.00;;;;;22.30;47.75;100620.44;5087357;27;45526;-74
2022/06/22 00:33:11;;;;;;;;;9.25;9.25;;;;;22.28;47.62;100622.38;5098095;27;45334;-74
2022/06/22 00:35:48;;;;;;;;;10.25;9.25;;;;;22.30;48.10;100621.31;5099599;27;45429;-74
2022/06/22 00:38:32;;;;;;;;;10.50;10.50;;;;;22.28;47.92;100611.50;5096575;27;45373;-74
2022/06/22 00:41:03;;;;;;;;;12.00;12.00;;;;;22.23;48.19;100620.03;5097217;27;45628;-74
2022/06/22 00:43:32;;;;;;;;;14.50;14.00;;;;;22.21;48.01;100611.16;5100541;27;45393;-74
2022/06/22 00:45:59;;;;;;;;;9.50;9.50;;;;;22.16;47.76;100603.38;5100474;27;45549;-74
2022/06/22 00:48:34;;;;;;;;;8.25;8.25;;;;;22.17;48.31;100610.56;5099072;27;45452;-74
2022/06/22 00:51:07;;;;;;;;;10.75;9.75;;;;;22.19;48.48;100622.16;5087950;27;45401;-75
2022/06/22 00:53:35;;;;;;;;;9.00;9.00;;;;;22.22;48.34;100615.63;5099238;27;45280;-74
2022/06/22 00:56:19;;;;;;;;;11.00;10.00;;;;;22.17;48.32;100606.97;5087978;27;45223;-75
2022/06/22 00:58:47;;;;;;;;;10.50;9.50;;;;;22.26;48.24;100625.22;5099197;27;45522;-75
2022/06/22 01:01:35;;;;;;;;;10.00;9.25;;;;;22.25;48.15;100618.06;5099960;27;45305;-75
2022/06/22 01:04:08;;;;;;;;;10.50;9.00;;;;;22.27;48.42;100623.38;5096059;27;45294;-74
2022/06/22 01:06:55;;;;;;;;;12.50;11.50;;;;;22.17;48.24;100613.28;5100042;27;45518;-74
2022/06/22 01:09:49;;;;;;;;;10.50;10.50;;;;;22.18;48.45;100625.00;5096790;27;45470;-76
2022/06/22 01:12:34;;;;;;;;;12.25;11.25;;;;;22.15;48.40;100617.97;5100510;27;45496;-75
2022/06/22 01:15:22;;;;;;;;;9.00;9.00;;;;;22.17;48.01;100617.84;5100340;27;45296;-73
2022/06/22 01:17:54;;;;;;;;;13.00;11.50;;;;;22.17;48.79;100626.88;5099435;27;45590;-75
2022/06/22 01:20:40;;;;;;;;;11.75;11.00;;;;;22.14;48.66;100639.84;5100065;27;46214;-75
2022/06/22 01:23:30;;;;;;;;;14.00;14.00;;;;;22.09;48.52;100623.06;5100298;27;45255;-74
2022/06/22 01:26:03;;;;;;;;;12.50;11.25;;;;;22.02;48.46;100620.00;5081324;27;45425;-73
2022/06/22 01:28:29;;;;;;;;;12.50;11.25;;;;;22.04;48.47;100628.88;5098873;27;45226;-73
2022/06/22 01:31:03;;;;;;;;;12.50;12.50;;;;;22.02;48.43;100617.28;5099462;27;45514;-73
2022/06/22 01:33:40;;;;;;;;;13.50;12.25;;;;;21.96;48.57;100607.75;5100332;27;45443;-75
2022/06/22 01:36:20;;;;;;;;;11.25;11.25;;;;;21.90;48.53;100612.84;5087265;27;45582;-75
2022/06/22 01:38:45;;;;;;;;;12.25;12.25;;;;;21.84;48.95;100617.78;5093580;27;45574;-75
2022/06/22 01:41:36;;;;;;;;;14.00;14.00;;;;;21.87;48.77;100630.25;5098601;27;45450;-75
2022/06/22 01:44:15;;;;;;;;;13.50;13.50;;;;;21.80;48.80;100632.63;5099872;27;45511;-75
2022/06/22 01:46:59;;;;;;;;;12.50;9.25;;;;;21.73;49.30;100638.66;5099171;27;45784;-75
2022/06/22 01:49:54;;;;;;;;;14.50;13.00;;;;;21.67;49.07;100637.31;5099291;27;45478;-75
2022/06/22 01:52:41;;;;;;;;;17.75;16.25;;;;;21.63;49.33;100635.81;5099919;27;45419;-75
2022/06/22 01:55:37;;;;;;;;;11.75;10.50;;;;;21.56;49.09;100629.16;5102408;27;45336;-75
2022/06/22 01:58:51;;;;;;;;;14.50;13.50;;;;;21.51;49.04;100643.09;5095703;27;45737;-75
2022/06/22 02:01:26;;;;;;;;;7.25;7.00;;;;;21.48;49.18;100653.34;5096212;27;45299;-75
2022/06/22 02:04:13;;;;;;;;;15.75;12.75;;;;;21.47;49.24;100657.94;5098723;27;45442;-75
2022/06/22 02:09:51;;;;;;;;;15.25;13.75;;;;;21.43;49.77;100654.56;5101973;27;45285;-75
2022/06/22 02:12:20;;;;;;;;;12.75;12.75;;;;;21.39;49.32;100653.06;5091469;27;45187;-75
2022/06/22 02:14:56;;;;;;;;;13.25;13.25;;;;;21.34;49.35;100659.88;5100424;27;46314;-75
2022/06/22 02:17:27;;;;;;;;;14.75;14.75;;;;;21.31;49.53;100657.38;5102377;27;45577;-75
2022/06/22 02:20:23;;;;;;;;;13.50;13.50;;;;;21.30;49.50;100648.38;5102365;27;45239;-75
2022/06/22 02:22:54;;;;;;;;;14.50;14.00;;;;;21.21;49.73;100640.94;5099146;27;45263;-74
2022/06/22 02:25:21;;;;;;;;;12.50;12.00;;;;;21.21;49.98;100635.53;5102848;27;45574;-74
2022/06/22 02:27:47;;;;;;;;;14.00;12.50;;;;;21.22;49.95;100639.97;5101971;27;46688;-75
2022/06/22 02:30:12;;;;;;;;;13.75;13.50;;;;;21.17;50.01;100628.63;5102665;27;45160;-75
2022/06/22 02:32:42;;;;;;;;;15.25;13.75;;;;;21.11;50.13;100624.53;5102873;27;45202;-75
2022/06/22 02:35:10;;;;;;;;;17.50;15.00;;;;;21.09;50.02;100635.50;5100500;27;46958;-75
2022/06/22 02:37:44;;;;;;;;;11.25;11.25;;;;;21.04;50.44;100623.28;5102057;27;45469;-75
2022/06/22 02:40:14;;;;;;;;;13.75;12.25;;;;;21.10;50.43;100633.66;5102223;27;45332;-75
2022/06/22 02:45:35;;;;;;;;;14.00;14.00;;;;;21.14;50.30;100631.56;5062330;27;45386;-75
2022/06/22 02:48:32;;;;;;;;;12.25;12.25;;;;;21.11;50.00;100629.94;5096807;27;45240;-75
2022/06/22 02:51:07;;;;;;;;;16.00;14.00;;;;;21.07;50.30;100623.06;5091909;27;45419;-75
2022/06/22 02:53:36;;;;;;;;;16.00;15.25;;;;;21.01;50.09;100605.38;5088357;27;45428;-75
2022/06/22 02:56:09;;;;;;;;;16.00;16.00;;;;;21.00;50.19;100608.22;5095840;27;46391;-75
2022/06/22 02:58:37;;;;;;;;;10.00;10.00;;;;;21.01;50.79;100597.25;5100604;27;45444;-75
2022/06/22 03:01:07;;;;;;;;;13.25;12.00;;;;;;;;5101990;27;45468;-75
2022/06/22 03:03:34;;;;;;;;;13.75;11.25;;;;;21.08;50.26;100589.47;5100615;27;45455;-75
2022/06/22 03:06:00;;;;;;;;;13.00;13.00;;;;;21.05;50.90;100573.47;5091202;27;45483;-75
2022/06/22 03:08:25;;;;;;;;;7.75;7.75;;;;;21.12;50.44;100574.69;5100737;27;45391;-75
2022/06/22 03:10:58;;;;;;;;;10.00;10.00;;;;;21.12;50.58;100554.81;5099663;27;45448;-74
2022/06/22 03:13:29;;;;;;;;;11.00;10.75;;;;;21.17;50.66;100556.19;5102117;27;45364;-74
2022/06/22 03:15:56;;;;;;;;;13.75;13.00;;;;;21.23;50.85;100563.84;5099534;27;45340;-75
2022/06/22 03:18:28;;;;;;;;;15.50;14.50;;;;;21.23;50.60;100558.44;5100903;27;45325;-75
2022/06/22 03:20:58;;;;;;;;;13.00;12.25;;;;;21.22;50.13;100566.69;5101556;27;45352;-75
2022/06/22 03:23:29;;;;;;;;;15.50;15.50;;;;;21.26;50.61;100560.88;5088515;27;45565;-75
2022/06/22 03:26:06;;;;;;;;;15.25;14.50;;;;;21.25;50.51;100555.56;5095547;27;45480;-75
2022/06/22 03:28:38;;;;;;;;;13.50;13.50;;;;;21.24;50.60;100567.41;5098561;27;45565;-75
2022/06/22 03:31:11;;;;;;;;;14.50;14.25;;;;;21.19;50.81;100556.06;5099696;27;45326;-75
2022/06/22 03:33:48;;;;;;;;;14.75;13.50;;;;;21.17;50.29;100552.63;5096807;27;45517;-75
2022/06/22 03:36:31;;;;;;;;;15.50;13.25;;;;;21.16;50.19;100551.75;5101019;27;45694;-75
2022/06/22 03:39:01;;;;;;;;;13.00;12.25;;;;;21.16;50.64;100567.16;5095998;27;45405;-75
2022/06/22 03:41:30;;;;;;;;;15.75;13.75;;;;;21.15;50.57;100560.00;5095458;27;45560;-74
2022/06/22 03:44:06;;;;;;;;;15.50;15.25;;;;;21.04;50.45;100541.88;5098242;27;45555;-75
2022/06/22 03:46:31;;;;;;;;;11.25;11.00;;;;;21.09;50.65;100564.94;5100504;27;46503;-75
2022/06/22 03:49:20;;;;;;;;;11.00;11.00;;;;;21.08;50.56;100551.50;5091295;27;45450;-75
2022/06/22 03:52:06;;;;;;;;;12.75;12.75;;;;;21.10;50.46;100547.69;5088169;27;45328;-75
2022/06/22 03:54:39;;;;;;;;;17.50;12.00;;;;;21.08;50.92;100544.22;5097070;27;45503;-75
2022/06/22 03:57:08;;;;;;;;;13.00;11.50;;;;;21.08;50.52;100556.91;5100143;27;45312;-74
2022/06/22 03:59:40;;;;;;;;;13.25;11.00;;;;;21.12;50.56;100552.97;5097529;27;45369;-74
2022/06/22 04:02:05;;;;;;;;;14.50;12.50;;;;;21.16;50.94;100550.88;5101075;27;45363;-74
2022/06/22 04:04:32;;;;;;;;;12.25;12.25;;;;;21.18;50.74;100560.63;5100925;27;45215;-74
2022/06/22 04:06:58;;;;;;;;;14.25;14.25;;;;;21.19;50.72;100564.22;5099446;27;45416;-74
2022/06/22 04:09:26;;;;;;;;;14.75;13.50;;;;;21.19;50.29;100570.50;5099999;27;45692;-74
2022/06/22 04:12:01;;;;;;;;;14.50;12.75;;;;;21.18;50.48;100579.63;5101357;27;45335;-74
2022/06/22 04:14:38;;;;;;;;;10.25;10.25;;;;;21.20;50.43;100580.38;5101406;27;45218;-74
2022/06/22 04:17:10;;;;;;;;;15.50;14.75;;;;;21.21;50.84;100583.94;5099724;27;45369;-74
2022/06/22 04:20:00;;;;;;;;;15.25;10.75;;;;;21.19;51.07;100594.06;5100382;27;45322;-74
2022/06/22 04:22:28;;;;;;;;;14.00;13.50;;;;;21.20;50.29;100590.34;5088446;27;45605;-74
2022/06/22 04:25:00;;;;;;;;;15.00;13.00;;;;;21.15;50.22;100603.44;5100673;27;45393;-74
2022/06/22 04:27:28;;;;;;;;;15.75;15.50;;;;;21.15;51.08;100585.31;5099924;27;45286;-74
2022/06/22 04:30:00;;;;;;;;;14.50;13.25;;;;;21.13;50.82;100580.97;5100913;27;45353;-74
2022/06/22 04:32:34;;;;;;;;;16.25;14.25;;;;;21.08;51.11;100579.50;5091287;27;45296;-74
2022/06/22 04:35:17;;;;;;;;;16.50;14.25;;;;;21.08;51.02;100559.63;5100001;27;45210;-74
2022/06/22 04:37:53;;;;;;;;;16.50;15.25;;;;;21.09;51.21;100556.78;5099483;27;46205;-74
2022/06/22 04:40:36;;;;;;;;;13.00;13.00;;;;;21.05;50.82;100573.47;5098360;27;45601;-75
2022/06/22 04:43:04;;;;;;;;;16.25;15.50;;;;;21.02;50.95;100565.56;5100163;27;45451;-75
2022/06/22 04:45:32;;;;;;;;;12.50;12.25;;;;;20.91;51.16;100555.53;5092368;27;45539;-75
2022/06/22 04:48:06;;;;;;;;;17.75;16.50;;;;;20.94;50.94;100578.88;5099086;27;46366;-75
2022/06/22 04:50:35;;;;;;;;;15.50;14.00;;;;;20.92;51.00;100570.84;5092242;27;45458;-74
2022/06/22 04:53:02;;;;;;;;;13.75;13.75;;;;;20.95;51.13;100573.31;5100776;27;45250;-74
2022/06/22 04:55:28;;;;;;;;;17.25;16.25;;;;;20.92;51.00;100592.56;5100216;27;45477;-74
2022/06/22 04:58:00;;;;;;;;;15.00;14.00;;;;;20.96;50.95;100583.16;5098417;27;45451;-74
2022/06/22 05:00:30;;;;;;;;;16.00;15.25;;;;;20.98;51.08;100570.38;5100004;27;45378;-75
2022/06/22 05:03:03;;;;;;;;;18.00;16.50;;;;;20.98;51.37;100572.19;5100129;27;45295;-75
2022/06/22 05:05:31;;;;;;;;;19.50;19.00;;;;;20.94;51.10;100554.44;5093989;27;45496;-74
2022/06/22 05:08:22;;;;;;;;;15.00;15.00;;;;;20.88;51.20;100548.53;5097487;27;46282;-75
2022/06/22 05:10:54;;;;;;;;;16.00;15.50;;;;;20.89;51.28;100552.94;5100176;27;45634;-75
2022/06/22 05:13:25;;;;;;;;;18.00;18.00;;;;;20.88;51.63;100556.66;5100215;27;45384;-75
2022/06/22 05:15:54;;;;;;;;;15.75;14.25;;;;;20.81;51.44;100558.09;5100262;27;45214;-75
2022/06/22 05:18:31;;;;;;;;;13.00;12.25;;;;;20.86;51.30;100563.19;5098773;27;46383;-75
2022/06/22 05:21:00;;;;;;;;;14.75;14.75;;;;;20.88;51.29;100561.19;5100468;27;45326;-74
2022/06/22 05:23:28;;;;;;;;;15.25;15.25;;;;;20.89;51.58;100561.09;5100158;27;45389;-74
2022/06/22 05:25:57;;;;;;;;;20.00;17.50;;;;;20.86;51.10;100552.31;5098635;27;45357;-74
2022/06/22 05:28:36;;;;;;;;;14.75;14.75;;;;;20.89;50.94;100558.38;5094148;27;46465;-74
2022/06/22 05:31:07;;;;;;;;;14.25;14.25;;;;;20.95;51.04;100550.72;5101651;27;45322;-74
2022/06/22 05:33:36;;;;;;;;;13.75;13.50;;;;;20.94;51.57;100552.59;5103131;27;45572;-75
2022/06/22 05:36:06;;;;;;;;;16.75;15.75;;;;;20.92;50.85;100551.84;5103731;27;45344;-75
2022/06/22 05:38:36;;;;;;;;;15.25;13.75;;;;;20.84;51.10;100544.31;5096816;27;45255;-75
2022/06/22 05:41:04;;;;;;;;;12.25;11.75;;;;;20.80;51.41;100548.25;5098081;27;45625;-75
2022/06/22 05:43:32;;;;;;;;;16.00;15.00;;;;;20.80;51.49;100541.94;5103541;27;45369;-75
2022/06/22 05:46:02;;;;;;;;;14.00;13.25;;;;;20.86;51.67;100555.03;5103563;27;45330;-75
2022/06/22 05:48:31;;;;;;;;;17.25;16.25;;;;;20.86;51.21;100563.19;5101538;27;46050;-75
2022/06/22 05:51:06;;;;;;;;;13.00;13.00;;;;;20.86;51.24;100565.91;5103532;27;45430;-75
2022/06/22 05:53:54;;;;;;;;;17.75;16.00;;;;;20.84;51.42;100563.31;5103020;27;45316;-75
2022/06/22 05:56:35;;;;;;;;;17.75;16.50;;;;;20.71;51.60;100557.09;5103413;27;45331;-74
2022/06/22 05:59:11;;;;;;;;;16.50;15.00;;;;;20.77;51.63;100561.22;5102438;27;45621;-75
2022/06/22 06:01:39;;;;;;;;;19.25;18.50;;;;;20.71;51.44;100558.00;5096064;27;47110;-74
2022/06/22 06:04:33;;;;;;;;;17.25;17.00;;;;;20.68;51.82;100552.81;5095710;27;45226;-74
2022/06/22 06:07:06;;;;;;;;;19.00;16.50;;;;;20.65;51.67;100549.47;5084912;27;45228;-74
2022/06/22 06:09:33;;;;;;;;;18.50;16.00;;;;;20.59;51.30;100548.03;5101487;27;46632;-74
2022/06/22 06:12:27;;;;;;;;;17.75;17.75;;;;;20.58;51.59;100550.88;5101774;27;45390;-75
2022/06/22 06:14:54;;;;;;;;;16.75;15.75;;;;;20.56;51.71;100553.69;5102113;27;45403;-74
2022/06/22 06:17:27;;;;;;;;;15.00;15.00;;;;;20.53;51.59;100557.53;5095690;27;45172;-76
2022/06/22 06:19:55;;;;;;;;;16.75;16.25;;;;;20.50;51.87;100568.59;5098291;27;47297;-75
2022/06/22 06:22:22;;;;;;;;;21.00;17.50;;;;;20.44;51.62;100557.38;5096856;27;45607;-76
2022/06/22 06:27:43;;;;;;;;;7.75;7.75;;;;;20.34;51.66;100551.78;5101499;27;45491;-76
2022/06/22 06:30:21;;;;;;;;;16.50;16.00;;;;;20.24;51.91;100542.63;5089572;27;45340;-76
2022/06/22 06:32:59;;;;;;;;;17.75;17.50;;;;;20.31;52.09;100554.72;5102169;27;45612;-77
2022/06/22 06:35:34;;;;;;;;;18.25;18.25;;;;;20.25;51.85;100556.06;5102583;27;45360;-76
2022/06/22 06:38:29;;;;;;;;;18.50;17.25;;;;;20.24;52.25;100558.91;5099895;27;45590;-77
2022/06/22 06:41:16;;;;;;;;;19.50;19.25;;;;;20.23;52.43;100555.31;5097462;27;45551;-76
2022/06/22 06:43:49;;;;;;;;;16.75;15.75;;;;;20.17;52.54;100553.94;5095665;27;45571;-76
2022/06/22 06:46:27;;;;;;;;;13.75;12.75;;;;;20.18;52.65;100558.38;5100262;27;45506;-76
2022/06/22 06:49:02;;;;;;;;;14.75;14.75;;;;;20.16;52.64;100551.34;5098745;27;45535;-75
2022/06/22 06:51:30;;;;;;;;;14.75;14.75;;;;;20.29;52.31;100572.97;5096824;27;46299;-75
2022/06/22 06:54:09;;;;;;;;;21.00;20.25;;;;;20.28;52.51;100566.69;5093426;27;45433;-74
2022/06/22 06:56:39;;;;;;;;;17.25;15.50;;;;;20.37;52.44;100567.81;5095585;27;45332;-74
2022/06/22 06:59:15;;;;;;;;;18.00;15.50;;;;;20.46;52.13;100574.38;5091676;27;45618;-74
2022/06/22 07:01:41;;;;;;;;;15.75;15.25;;;;;20.35;52.01;100572.50;5094658;27;45460;-74
2022/06/22 07:04:15;;;;;;;;;15.75;15.50;;;;;20.35;52.15;100576.06;5095445;27;46133;-74
2022/06/22 07:06:40;;;;;;;;;19.75;16.50;;;;;20.35;52.25;100578.78;5091950;27;46027;-74
2022/06/22 07:09:28;;;;;;;;;13.50;12.50;;;;;20.31;52.23;100566.47;5094175;27;52044;-76
2022/06/22 07:12:00;;;;;;;;;17.75;15.75;;;;;20.24;52.77;100543.50;5099086;27;46179;-76
2022/06/22 07:14:35;;;;;;;;;17.25;15.75;;;;;20.39;52.35;100568.56;5098419;27;45694;-76
2022/06/22 07:17:11;;;;;;;;;18.00;17.75;;;;;20.40;52.21;100564.00;5100606;27;45399;-75
2022/06/22 07:19:48;;;;;;;;;17.50;16.00;;;;;20.38;52.63;100569.56;5088944;27;45468;-76
2022/06/22 07:22:13;;;;;;;;;17.00;16.75;;;;;20.49;52.60;100574.16;5101065;27;46362;-76
2022/06/22 07:24:49;;;;;;;;;16.75;16.00;;;;;20.54;52.80;100571.94;5094892;27;45453;-76
2022/06/22 07:27:25;;;;;;;;;23.25;16.50;;;;;20.51;52.39;100548.66;5095692;27;45624;-76
2022/06/22 07:30:32;;;;;;;;;15.75;15.25;;;;;20.55;52.09;100570.97;5097913;27;45510;-76
2022/06/22 07:33:06;;;;;;;;;17.75;14.75;;;;;20.48;52.26;100572.41;5063346;28;45483;-76
2022/06/22 07:35:48;;;;;;;;;17.25;17.25;;;;;20.48;53.20;100561.56;5096405;27;45791;-77
2022/06/22 07:38:38;;;;;;;;;18.25;17.25;;;;;20.58;52.56;100584.31;5093578;27;45368;-76
2022/06/22 07:41:19;;;;;;;;;21.50;17.00;;;;;20.54;52.50;100574.66;5097839;27;45606;-76
2022/06/22 07:43:47;;;;;;;;;18.25;18.25;;;;;20.62;52.62;100579.50;5094597;27;46281;-76
2022/06/22 07:46:23;;;;;;;;;14.00;14.00;;;;;20.61;52.36;100578.63;5100794;27;45271;-77
2022/06/22 07:48:54;;;;;;;;;19.00;17.00;;;;;20.66;52.20;100581.00;5091802;27;45449;-78
2022/06/22 07:51:27;;;;;;;;;15.75;15.50;;;;;20.63;51.95;100584.84;5090269;27;45477;-66
2022/06/22 07:54:10;;;;;;;;;19.75;18.50;;;;;20.63;52.69;100587.56;5093899;27;46725;-77
2022/06/22 07:56:46;;;;;;;;;18.25;15.75;;;;;20.70;52.28;100587.94;5097433;27;45402;-73
2022/06/22 07:59:20;;;;;;;;;17.00;17.00;;;;;20.72;51.98;100589.53;5101122;27;45238;-73
2022/06/22 08:01:48;;;;;;;;;18.75;16.25;;;;;20.69;52.50;100578.91;5096618;27;45462;-73
2022/06/22 08:04:19;;;;;;;;;16.50;15.25;;;;;20.78;52.71;100593.63;5098255;27;47352;-73
2022/06/22 08:06:52;;;;;;;;;16.00;15.75;;;;;20.79;52.67;100600.78;5097943;27;45537;-74
2022/06/22 08:09:21;;;;;;;;;15.50;15.50;;;;;20.87;52.04;100600.19;5100243;27;45436;-73
2022/06/22 08:12:13;;;;;;;;;16.75;15.00;;;;;20.92;52.35;100606.13;5100385;27;45638;-73
2022/06/22 08:14:42;;;;;;;;;21.00;18.25;;;;;20.95;52.66;100600.47;5089695;27;45415;-72
2022/06/22 08:17:17;;;;;;;;;17.75;16.00;;;;;20.94;52.53;100597.84;5084753;27;45491;-73
2022/06/22 08:19:43;;;;;;;;;17.50;16.50;;;;;20.93;52.40;100605.13;5089146;27;45411;-73
2022/06/22 08:22:11;;;;;;;;;22.25;21.00;;;;;20.95;52.25;100602.28;5099985;27;45292;-73
2022/06/22 08:24:44;;;;;;;;;18.75;18.75;;;;;21.01;51.83;100608.09;5097847;27;47275;-73
2022/06/22 08:27:15;;;;;;;;;23.25;21.25;;;;;20.98;52.13;100608.38;5099257;27;45351;-73
2022/06/22 08:29:41;;;;;;;;;23.25;20.75;;;;;21.06;52.29;100616.72;5098500;27;45420;-73
2022/06/22 08:32:39;;;;;;;;;19.25;17.75;;;;;21.10;52.34;100612.81;5095518;27;45474;-73
2022/06/22 08:35:13;;;;;;;;;18.00;17.25;;;;;21.19;52.41;100613.06;5085441;27;45668;-70
2022/06/22 08:38:13;;;;;;;;;22.00;18.00;;;;;21.25;52.16;100608.03;5096035;27;45451;-67
2022/06/22 08:41:23;;;;;;;;;19.75;18.25;;;;;21.29;52.03;100600.50;5110078;27;45460;-69
2022/06/22 08:44:25;;;;;;;;;16.50;16.50;;;;;21.23;51.64;100587.41;5097898;27;46662;-70
2022/06/22 08:47:19;;;;;;;;;20.00;19.25;;;;;21.36;52.02;100611.72;5090411;27;47729;-70
2022/06/22 08:50:05;;;;;;;;;13.75;13.75;;;;;21.36;51.85;100593.56;5096292;27;45424;-71
2022/06/22 08:52:40;;;;;;;;;19.50;18.25;;;;;21.47;51.85;100598.19;5096572;27;45491;-70
2022/06/22 08:55:23;;;;;;;;;17.50;16.25;;;;;21.52;51.21;100601.41;5099410;27;45425;-72
2022/06/22 08:58:19;;;;;;;;;19.00;18.00;;;;;21.48;51.69;100586.31;5099413;27;46145;-72
2022/06/22 09:01:13;;;;;;;;;15.75;13.25;;;;;21.54;51.44;100593.97;5087091;27;46164;-71
2022/06/22 09:04:05;;;;;;;;;16.50;16.00;;;;;21.57;51.22;100587.47;5091347;27;45718;-71
2022/06/22 09:06:49;;;;;;;;;20.50;20.50;;;;;21.62;51.15;100601.53;5097016;27;45489;-72
2022/06/22 09:09:23;;;;;;;;;22.75;21.75;;;;;21.62;51.39;100598.81;5083016;27;47249;-73
2022/06/22 09:12:10;;;;;;;;;17.25;17.25;;;;;21.63;51.87;100598.69;5091344;27;45361;-73
2022/06/22 09:14:57;;;;;;;;;23.50;18.50;;;;;21.63;51.44;100598.69;5087975;27;45421;-73
2022/06/22 09:17:40;;;;;;;;;21.75;18.75;;;;;21.68;51.56;100605.59;5098644;27;45663;-73
2022/06/22 09:20:48;;;;;;;;;16.75;16.75;;;;;21.71;52.16;100597.19;5097545;27;45657;-72
2022/06/22 09:23:28;;;;;;;;;21.75;20.25;;;;;21.74;52.02;100600.50;5099406;27;45366;-71
2022/06/22 09:26:05;;;;;;;;;18.25;18.25;;;;;21.78;52.40;100609.28;5098487;27;45426;-71
2022/06/22 09:28:58;;;;;;;;;20.75;20.25;;;;;21.78;51.67;100612.00;5099439;27;45375;-71
2022/06/22 09:31:23;;;;;;;;;18.00;18.00;;;;;21.73;51.51;100625.94;5094262;27;45444;-71
2022/06/22 09:33:59;;;;;;;;;18.25;17.50;;;;;21.74;51.93;100627.69;5089594;27;45267;-71
2022/06/22 09:36:46;;;;;;;;;19.25;17.50;;;;;21.76;51.72;100617.53;5094136;27;45428;-71
2022/06/22 09:39:32;;;;;;;;;22.25;19.75;;;;;21.75;51.73;100612.22;5095906;27;45671;-71
2022/06/22 09:42:39;;;;;;;;;17.50;15.50;;;;;21.76;51.56;100614.81;5096228;27;45361;-71
2022/06/22 09:45:39;;;;;;;;;19.50;16.75;;;;;21.79;51.74;100609.16;5092865;27;45511;-71
2022/06/22 09:48:36;;;;;;;;;21.25;19.00;;;;;21.82;51.80;100611.63;5079504;27;45487;-71
2022/06/22 09:51:22;;;;;;;;;21.25;21.25;;;;;21.71;51.59;100584.47;5093894;27;45271;-71
2022/06/22 09:56:19;;;;;;;;;19.25;18.00;;;;;21.82;51.42;100603.47;5085476;27;47420;-69
2022/06/22 09:57:29;;;;;;;;;20.00;17.50;;;;;21.83;51.71;100612.47;5084253;27;45607;-68
2022/06/22 10:00:09;;;;;;;;;20.75;19.25;;;;;21.86;51.78;100606.78;5096645;27;45676;-69
2022/06/22 10:02:57;;;;;;;;;21.00;19.75;;;;;21.89;52.03;100611.97;5098066;27;45375;-69
2022/06/22 10:05:26;;;;;;;;;19.50;19.50;;;;;21.92;51.83;100597.25;5092648;27;45936;-68
2022/06/22 10:08:03;;;;;;;;;17.50;17.50;;;;;21.96;53.04;100610.47;5095778;27;45497;-69
2022/06/22 10:10:42;;;;;;;;;21.50;20.25;;;;;22.04;53.09;100606.28;5089064;27;45278;-69
2022/06/22 10:13:29;;;;;;;;;23.50;22.00;;;;;22.08;52.37;100610.47;5078727;27;45588;-69
2022/06/22 10:16:45;;;;;;;;;20.50;18.50;;;;;22.11;52.17;100602.06;5090848;27;47462;-69
2022/06/22 10:19:39;;;;;;;;;19.25;19.25;;;;;22.16;52.85;100594.38;5088933;27;45539;-69
2022/06/22 10:22:41;;;;;;;;;17.50;17.00;;;;;22.24;52.28;100589.16;5102091;27;45319;-69
2022/06/22 10:25:28;;;;;;;;;22.00;21.25;;;;;22.36;51.92;100596.31;5096736;27;45401;-69
2022/06/22 10:28:10;;;;;;;;;21.25;19.50;;;;;22.43;52.87;100596.66;5088470;27;45466;-69
2022/06/22 10:31:11;;;;;;;;;19.25;17.75;;;;;22.48;53.33;100583.50;5098612;27;45830;-69
2022/06/22 10:33:55;;;;;;;;;22.75;22.00;;;;;22.64;52.67;100591.25;5093786;27;45549;-72
2022/06/22 10:36:44;;;;;;;;;19.00;18.25;;;;;22.72;52.82;100585.13;5100685;27;45657;-72
2022/06/22 10:39:44;;;;;;;;;19.50;19.50;;;;;22.78;52.54;100579.16;5094352;27;46225;-72
2022/06/22 10:45:24;;;;;;;;;17.50;16.50;;;;;22.89;53.12;100567.38;5101944;27;45365;-72
2022/06/22 10:48:28;;;;;;;;;29.25;25.25;;;;;23.01;53.04;100573.59;5101032;27;45411;-72
2022/06/22 10:51:08;;;;;;;;;18.75;18.50;;;;;23.07;53.30;100557.63;5101975;27;46166;-72
2022/06/22 10:53:54;;;;;;;;;18.75;18.00;;;;;23.17;53.33;100548.63;5101710;27;45679;-72
2022/06/22 10:56:46;;;;;;;;;15.00;15.00;;;;;23.25;54.19;100554.25;5099727;27;45582;-72
2022/06/22 10:59:21;;;;;;;;;15.75;15.75;;;;;23.38;54.36;100554.03;5086858;27;45474;-72
2022/06/22 11:02:02;;;;;;;;;15.00;15.00;;;;;23.45;54.22;100547.00;5101872;27;46447;-72
2022/06/22 11:04:45;;;;;;;;;14.75;12.50;;;;;23.58;55.03;100560.41;5100962;27;45650;-72
2022/06/22 11:07:43;;;;;;;;;13.00;13.00;;;;;23.69;54.24;100563.03;5095028;27;45430;-72
2022/06/22 11:10:47;;;;;;;;;13.25;12.25;;;;;23.73;53.90;100561.72;5098808;27;45490;-72
2022/06/22 11:13:46;;;;;;;;;14.75;14.75;;;;;23.74;54.38;100558.03;5101075;27;46169;-72
2022/06/22 11:16:17;;;;;;;;;14.50;14.50;;;;;23.82;53.96;100566.38;5100249;27;45357;-72
2022/06/22 11:19:01;;;;;;;;;16.50;15.00;;;;;23.84;53.99;100558.94;5105341;27;45404;-72
2022/06/22 11:21:44;;;;;;;;;15.50;13.00;;;;;23.85;54.02;100562.50;5101638;27;45445;-72
2022/06/22 11:24:34;;;;;;;;;14.25;12.25;;;;;23.86;53.86;100570.53;5101087;27;45408;-72
2022/06/22 11:33:23;;;;;;;;;13.00;12.75;;;;;23.91;54.46;100574.72;5087408;27;45354;-72
2022/06/22 11:36:03;;;;;;;;;12.00;10.00;;;;;23.92;54.37;100569.09;5100588;27;45612;-72
2022/06/22 11:38:50;;;;;;;;;13.25;12.50;;;;;23.94;54.16;100567.13;5096493;27;45414;-72
2022/06/22 11:41:47;;;;;;;;;14.25;14.25;;;;;23.98;53.75;100571.28;5100800;27;45379;-72
2022/06/22 11:44:25;;;;;;;;;10.00;9.25;;;;;23.96;53.90;100570.56;5099835;27;45337;-72
2022/06/22 11:46:54;;;;;;;;;13.50;13.00;;;;;23.90;53.67;100571.13;5099926;27;45475;-72
2022/06/22 11:49:42;;;;;;;;;14.25;14.25;;;;;23.91;53.63;100574.72;5078901;27;45957;-72
2022/06/22 11:52:29;;;;;;;;;14.50;14.50;;;;;23.94;53.83;100574.44;5095976;27;45387;-72
2022/06/22 11:55:24;;;;;;;;;17.25;16.75;;;;;23.95;54.06;100574.28;5100219;27;45628;-72
2022/06/22 11:58:32;;;;;;;;;18.25;16.25;;;;;23.91;54.40;100575.59;5093690;27;45420;-72
2022/06/22 12:02:11;;;;;;;;;;;;;;;;;;;;;
2022/06/22 12:05:06;;;;;;;;;;;;;;;;;;;;;
2022/06/22 12:08:03;;;;;;;;;17.75;16.25;;;;;23.91;54.38;100574.72;5089248;27;73268;-71
2022/06/22 12:10:36;;;;;;;;;11.00;11.00;;;;;23.99;54.66;100583.03;5096089;27;45725;-71
2022/06/22 12:13:40;;;;;;;;;13.25;12.75;;;;;23.99;54.97;100585.75;5091709;27;45907;-71
2022/06/22 12:16:27;;;;;;;;;17.75;16.25;;;;;23.98;54.11;100584.91;5092529;27;45827;-73
2022/06/22 12:19:18;;;;;;;;;19.75;16.75;;;;;23.96;54.55;100592.38;5095225;27;45456;-71
2022/06/22 12:21:52;;;;;;;;;16.75;15.50;;;;;23.96;54.71;100591.53;5102586;27;47215;-71
2022/06/22 12:25:06;;;;;;;;;17.25;16.00;;;;;23.95;54.49;100596.09;5089717;27;45843;-72
2022/06/22 12:27:38;;;;;;;;;15.50;15.50;;;;;23.94;54.52;100599.84;5095141;27;45500;-72